Date,TemperatureHighF,TemperatureAvgF,TemperatureLowF,DewpointHighF,DewpointAvgF,DewpointLowF,HumidityHigh,HumidityAvg,HumidityLow,PressureMaxIn,PressureMinIn,WindSpeedMaxMPH,WindSpeedAvgMPH,GustSpeedMaxMPH,PrecipitationSumIn
2013-2-1,20.8,12.2,-1.1,14.1,2.6,-8.6,75,65,57,29.62,29.35,12,3,12,0.00
2013-2-2,26.6,21.4,18.0,20.4,12.6,9.4,81,69,61,29.35,29.23,13,2,13,0.00
2013-2-3,29.1,24.6,19.2,18.6,15.3,12.6,82,67,60,29.36,29.15,12,3,12,0.00
2013-2-4,31.5,26.0,18.7,22.4,18.4,12.4,77,72,67,29.21,28.99,14,4,14,0.00
2013-2-5,39.0,33.1,18.9,30.2,25.7,12.9,81,74,67,29.32,29.05,14,3,14,0.00
2013-2-6,46.2,37.0,21.7,36.1,29.5,17.1,84,74,65,29.41,29.22,16,4,16,0.00
2013-2-7,38.1,36.1,32.5,34.6,32.4,28.2,88,86,80,29.30,29.10,13,2,13,0.59
2013-2-8,32.4,29.7,28.0,28.1,23.2,21.9,84,77,74,29.57,29.32,13,3,13,0.00
2013-2-9,40.1,33.4,27.1,30.9,26.6,21.9,82,76,69,29.56,29.20,18,5,18,0.00
2013-2-10,49.5,43.2,34.5,46.3,38.4,29.6,90,84,69,29.17,28.62,32,9,32,0.52
2013-2-11,35.4,32.0,29.8,28.0,22.8,21.7,74,69,65,29.33,28.84,23,8,23,0.00
2013-2-12,41.7,33.7,28.0,28.2,24.3,21.0,77,69,57,29.36,29.13,9,2,9,0.00
2013-2-13,45.7,37.5,25.5,33.8,28.9,20.5,82,71,61,29.11,28.94,12,2,12,0.00
2013-2-14,41.5,36.9,30.4,31.4,29.1,25.0,82,73,65,29.27,28.92,14,4,14,0.00
2013-2-15,34.2,26.6,20.1,24.4,14.2,9.6,78,59,46,29.48,29.29,10,2,10,0.00
2013-2-16,29.8,23.2,13.5,16.5,12.3,5.3,71,63,56,29.46,29.37,10,2,10,0.00
2013-2-17,41.5,32.6,15.1,25.3,20.2,7.7,73,60,50,29.39,29.05,19,7,19,0.00
2013-2-18,54.0,41.6,20.5,41.6,33.5,14.2,84,73,61,29.03,28.73,19,4,19,0.34
2013-2-19,25.5,17.9,9.5,13.0,7.5,0.5,74,64,56,29.51,29.05,18,4,18,0.00
2013-2-20,25.5,18.3,4.8,13.2,7.7,-3.2,71,63,55,29.64,29.53,9,0,9,0.00
2013-2-21,29.1,24.6,14.2,22.8,17.9,7.1,83,75,68,29.57,29.09,18,3,18,0.00
2013-2-22,39.4,30.6,24.8,31.2,23.5,18.0,84,75,68,29.20,28.98,11,4,11,0.00
2013-2-23,38.8,30.4,21.2,24.5,19.5,13.4,76,64,55,29.20,29.17,8,2,8,0.00
2013-2-24,43.9,34.3,15.4,27.9,22.8,9.8,78,63,53,29.33,29.22,9,1,9,0.05
2013-2-25,45.9,35.8,22.1,31.8,26.7,16.6,80,70,56,29.33,29.09,11,3,11,0.00
2013-2-26,34.5,32.6,30.7,29.5,27.7,26.3,86,82,73,29.06,28.76,21,8,21,0.05
2013-2-27,37.4,33.1,29.5,30.8,27.9,25.5,85,81,74,29.06,28.87,10,1,10,0.05
2013-2-28,37.8,34.1,30.0,29.5,27.6,25.5,85,77,70,29.32,29.08,12,2,12,0.00